CheckWX is a tool to help pilots better visualize weather data.  It is not intended as a substitute for an official pre-flight weather briefing.

05:41:09 UTC

BIRK METAR
Reykjavik Airport
Reykjavik, Iceland
Current

41 mins ago

BIRK 250500Z 11020KT 9999 -DZ FEW032 SCT065 BKN086 02/M02 Q1014
Observed
Mar-25 @ 05:00 UTC
Wind
  • 110° at 20 KTS
Visibility
10,000+ meters
Flight Rules
VFR
Conditions
Light Drizzle
Cloud Levels
  • Few at 3,200' AGL
  • Scattered at 6,500' AGL
  • Broken at 8,600' AGL
Temperature
C / 36°F
Dewpoint
-2°C / 28°F
Humidity
75%
Altimeter
29.94" Hg
Pressure
1013.92 hPa
Previous

2 hours ago

BIRK 250400Z 09018KT 9999 -SNRA SCT038 OVC044 01/M02 Q1015
Observed
Mar-25 @ 04:00 UTC
Wind
  • 090° at 18 KTS
Visibility
10,000+ meters
Flight Rules
VFR
Conditions
Light Snow, Light Rain
Cloud Levels
  • Scattered at 3,800' AGL
  • Overcast at 4,400' AGL
Temperature
C / 34°F
Dewpoint
-2°C / 28°F
Humidity
81%
Altimeter
29.97" Hg
Pressure
1014.92 hPa
Previous

3 hours ago

BIRK 250300Z 09017KT 9999 FEW032 OVC068 M00/M03 Q1017
Observed
Mar-25 @ 03:00 UTC
Wind
  • 090° at 17 KTS
Visibility
10,000+ meters
Flight Rules
VFR
Cloud Levels
  • Few at 3,200' AGL
  • Overcast at 6,800' AGL
Temperature
C / 32°F
Dewpoint
-3°C / 27°F
Humidity
80%
Altimeter
30.03" Hg
Pressure
1016.92 hPa